createdAt,value
2023-11-02T00:01:56.789Z,4.51
2023-11-02T00:04:25.030Z,4.47
2023-11-02T00:06:52.104Z,4.39
2023-11-02T00:09:28.890Z,4.56
2023-11-02T00:12:03.566Z,4.60
2023-11-02T00:14:57.732Z,4.58
2023-11-02T00:17:36.858Z,4.67
2023-11-02T00:20:09.286Z,4.79
2023-11-02T00:22:44.125Z,4.87
2023-11-02T00:25:18.920Z,4.96
2023-11-02T00:27:45.679Z,5.23
2023-11-02T00:30:12.635Z,5.18
2023-11-02T00:32:39.415Z,5.29
2023-11-02T00:35:06.284Z,4.86
2023-11-02T00:37:33.106Z,5.07
2023-11-02T00:39:59.945Z,4.91
2023-11-02T00:42:26.733Z,4.54
2023-11-02T00:44:53.469Z,4.61
2023-11-02T00:47:20.483Z,4.90
2023-11-02T00:49:47.254Z,4.69
2023-11-02T00:52:15.626Z,4.11
2023-11-02T00:54:45.618Z,4.39
2023-11-02T00:57:13.251Z,4.82
2023-11-02T00:59:40.761Z,4.60
2023-11-02T01:02:08.686Z,4.26
2023-11-02T01:04:44.602Z,4.44
2023-11-02T01:07:12.148Z,4.79
2023-11-02T01:09:41.855Z,4.70
2023-11-02T01:12:09.248Z,4.91
2023-11-02T01:14:50.376Z,4.83
2023-11-02T01:17:39.790Z,4.76
2023-11-02T01:20:15.817Z,4.69
2023-11-02T01:22:51.912Z,4.54
2023-11-02T01:25:19.044Z,4.53
2023-11-02T01:27:51.742Z,4.53
2023-11-02T01:30:19.451Z,4.63
2023-11-02T01:32:48.785Z,4.61
2023-11-02T01:35:45.273Z,4.54
2023-11-02T01:38:15.914Z,4.57
2023-11-02T01:40:52.687Z,4.74
2023-11-02T01:43:28.433Z,4.89
2023-11-02T01:45:59.289Z,5.07
2023-11-02T01:48:41.511Z,5.10
2023-11-02T01:51:10.584Z,4.84
2023-11-02T01:53:52.965Z,4.95
2023-11-02T01:56:43.626Z,5.05
2023-11-02T01:59:25.411Z,5.02
2023-11-02T02:02:02.571Z,5.16
2023-11-02T02:04:57.266Z,5.01
2023-11-02T02:07:42.891Z,5.24
2023-11-02T02:10:23.241Z,5.33
2023-11-02T02:13:09.361Z,5.56
2023-11-02T02:16:04.028Z,5.35
2023-11-02T02:18:39.276Z,5.19
2023-11-02T02:21:16.993Z,5.40
2023-11-02T02:23:55.687Z,5.26
2023-11-02T02:26:28.566Z,5.58
2023-11-02T02:29:13.895Z,4.94
2023-11-02T02:32:02.269Z,4.69
2023-11-02T02:34:50.209Z,4.62
2023-11-02T02:37:25.734Z,4.68
2023-11-02T02:40:00.835Z,4.75
2023-11-02T02:42:29.494Z,5.03
2023-11-02T02:44:59.091Z,5.38
2023-11-02T02:47:28.749Z,5.71
2023-11-02T02:49:58.087Z,5.80
2023-11-02T02:52:29.106Z,5.89
2023-11-02T02:54:58.450Z,6.05
2023-11-02T02:57:30.005Z,6.09
2023-11-02T03:00:01.010Z,5.97
2023-11-02T03:02:33.487Z,5.69
2023-11-02T03:05:00.557Z,5.24
2023-11-02T03:07:31.828Z,5.62
2023-11-02T03:10:04.311Z,5.89
2023-11-02T03:12:35.485Z,5.92
2023-11-02T03:15:07.075Z,6.14
2023-11-02T03:18:13.341Z,6.50
2023-11-02T03:20:42.375Z,5.89
2023-11-02T03:23:22.680Z,5.99
2023-11-02T03:26:03.187Z,6.14
2023-11-02T03:28:37.924Z,6.16
2023-11-02T03:31:31.528Z,6.25
2023-11-02T03:34:13.109Z,6.26
2023-11-02T03:36:58.761Z,6.03
2023-11-02T03:39:39.901Z,6.07
2023-11-02T03:42:36.689Z,6.05
2023-11-02T03:45:20.914Z,6.23
2023-11-02T03:48:12.031Z,6.35
2023-11-02T03:51:19.186Z,6.44
2023-11-02T03:54:17.653Z,6.47
2023-11-02T03:57:05.982Z,6.33
2023-11-02T03:59:37.428Z,6.09
2023-11-02T04:02:08.081Z,6.33
2023-11-02T04:05:00.254Z,5.74
2023-11-02T04:07:29.811Z,5.75
2023-11-02T04:10:09.050Z,6.23
2023-11-02T04:13:04.817Z,6.16
2023-11-02T04:15:32.322Z,6.20
2023-11-02T04:18:00.244Z,6.38
2023-11-02T04:20:28.126Z,6.31
2023-11-02T04:22:55.123Z,6.28
2023-11-02T04:25:21.965Z,6.05
2023-11-02T04:27:48.780Z,6.32
2023-11-02T04:30:18.108Z,6.27
2023-11-02T04:32:44.810Z,6.20
2023-11-02T04:35:12.018Z,5.82
2023-11-02T04:37:39.374Z,5.63
2023-11-02T04:40:08.923Z,5.52
2023-11-02T04:42:35.723Z,5.58
2023-11-02T04:45:03.577Z,5.59
2023-11-02T04:47:30.320Z,5.82
2023-11-02T04:49:58.019Z,6.12
2023-11-02T04:52:25.419Z,6.16
2023-11-02T04:54:52.106Z,5.90
2023-11-02T04:57:18.806Z,6.02
2023-11-02T04:59:46.182Z,6.24
2023-11-02T05:02:13.062Z,6.62
2023-11-02T05:04:39.971Z,6.38
2023-11-02T05:07:07.257Z,6.42
2023-11-02T05:09:34.334Z,6.43
2023-11-02T05:12:01.238Z,6.50
2023-11-02T05:14:27.938Z,6.78
2023-11-02T05:16:54.630Z,6.62
2023-11-02T05:19:21.376Z,6.86
2023-11-02T05:21:48.078Z,7.05
2023-11-02T05:24:16.776Z,7.14
2023-11-02T05:26:43.650Z,7.01
2023-11-02T05:29:10.337Z,6.99
2023-11-02T05:31:37.574Z,7.04
2023-11-02T05:34:04.556Z,6.92
2023-11-02T05:36:31.551Z,7.03
2023-11-02T05:38:58.371Z,6.95
2023-11-02T05:41:25.223Z,6.90
2023-11-02T05:43:52.158Z,7.23
2023-11-02T05:46:18.803Z,7.53
2023-11-02T05:48:45.550Z,6.93
2023-11-02T05:51:12.322Z,6.80
2023-11-02T05:53:39.140Z,7.01
2023-11-02T05:56:06.502Z,7.19
2023-11-02T05:58:33.185Z,7.12
2023-11-02T06:00:59.862Z,7.43
2023-11-02T06:03:27.769Z,7.55
2023-11-02T06:05:54.893Z,7.63
2023-11-02T06:08:21.728Z,7.54
2023-11-02T06:10:48.614Z,7.33
2023-11-02T06:13:15.337Z,7.28
2023-11-02T06:15:42.818Z,6.74
2023-11-02T06:18:09.808Z,6.98
2023-11-02T06:20:36.586Z,7.10
2023-11-02T06:23:05.049Z,7.27
2023-11-02T06:25:31.857Z,6.94
2023-11-02T06:27:58.673Z,6.82
2023-11-02T06:30:26.367Z,6.56
2023-11-02T06:32:55.379Z,7.28
2023-11-02T06:35:22.122Z,7.49
2023-11-02T06:37:59.283Z,7.10
2023-11-02T06:40:27.180Z,7.17
2023-11-02T06:42:55.171Z,7.18
2023-11-02T06:45:21.844Z,7.67
2023-11-02T06:47:48.669Z,7.76
2023-11-02T06:50:15.377Z,7.74
2023-11-02T06:52:42.174Z,7.45
2023-11-02T06:55:09.070Z,7.37
2023-11-02T06:57:35.948Z,7.34
2023-11-02T07:00:06.952Z,6.94
2023-11-02T07:02:34.257Z,7.17
2023-11-02T07:05:02.085Z,7.21
2023-11-02T07:07:28.948Z,6.54
2023-11-02T07:09:57.653Z,6.48
2023-11-02T07:12:24.415Z,6.79
2023-11-02T07:14:51.093Z,6.97
2023-11-02T07:17:17.716Z,7.10
2023-11-02T07:19:44.415Z,7.26
2023-11-02T07:22:11.124Z,6.97
2023-11-02T07:24:37.932Z,6.98
2023-11-02T07:27:04.894Z,7.31
2023-11-02T07:29:31.962Z,7.35
2023-11-02T07:31:58.678Z,7.58
2023-11-02T07:34:25.509Z,7.28
2023-11-02T07:36:55.166Z,6.73
2023-11-02T07:39:21.957Z,7.16
2023-11-02T07:41:48.804Z,7.16
2023-11-02T07:44:15.540Z,7.27
2023-11-02T07:46:42.489Z,7.66
2023-11-02T07:49:09.353Z,7.83
2023-11-02T07:51:36.217Z,7.85
2023-11-02T07:54:02.942Z,7.95
2023-11-02T07:56:29.672Z,8.09
2023-11-02T07:58:56.430Z,8.04
2023-11-02T08:01:26.251Z,7.91
2023-11-02T08:03:53.025Z,7.90
2023-11-02T08:06:19.975Z,7.88
2023-11-02T08:08:46.805Z,7.54
2023-11-02T08:11:13.903Z,7.85
2023-11-02T08:13:40.704Z,7.91
2023-11-02T08:16:07.802Z,7.93
2023-11-02T08:18:34.489Z,8.06
2023-11-02T08:21:07.120Z,8.39
2023-11-02T08:23:33.929Z,8.34
2023-11-02T08:26:00.934Z,8.44
2023-11-02T08:28:29.668Z,8.26
2023-11-02T08:30:58.001Z,7.99
2023-11-02T08:33:24.735Z,7.41
2023-11-02T08:35:52.281Z,7.07
2023-11-02T08:38:18.978Z,6.84
2023-11-02T08:40:45.751Z,7.06
2023-11-02T08:43:12.720Z,7.63
2023-11-02T08:45:39.553Z,8.06
2023-11-02T08:48:06.848Z,8.01
2023-11-02T08:50:34.141Z,8.18
2023-11-02T08:53:02.346Z,8.09
2023-11-02T08:55:30.121Z,8.05
2023-11-02T08:57:56.841Z,7.54
2023-11-02T09:00:23.640Z,6.88
2023-11-02T09:02:50.535Z,7.00
2023-11-02T09:05:17.380Z,7.52
2023-11-02T09:07:44.129Z,7.65
2023-11-02T09:10:10.837Z,8.20
2023-11-02T09:12:37.582Z,8.51
2023-11-02T09:15:04.784Z,8.91
2023-11-02T09:17:31.542Z,8.91
2023-11-02T09:19:58.224Z,8.94
2023-11-02T09:22:28.176Z,9.08
2023-11-02T09:24:55.282Z,9.05
2023-11-02T09:27:22.004Z,9.32
2023-11-02T09:29:48.769Z,9.26
2023-11-02T09:32:15.494Z,9.35
2023-11-02T09:34:42.288Z,9.04
2023-11-02T09:37:08.996Z,8.95
2023-11-02T09:39:37.855Z,9.25
2023-11-02T09:42:05.356Z,9.26
2023-11-02T09:44:32.772Z,9.33
2023-11-02T09:46:59.642Z,9.31
2023-11-02T09:49:26.640Z,9.16
2023-11-02T09:51:54.422Z,9.16
2023-11-02T09:54:25.927Z,9.31
2023-11-02T09:56:58.458Z,9.00
2023-11-02T09:59:25.575Z,8.96
2023-11-02T10:01:54.024Z,9.22
2023-11-02T10:04:20.829Z,9.22
2023-11-02T10:06:47.601Z,9.32
2023-11-02T10:09:14.537Z,9.29
2023-11-02T10:11:41.848Z,9.16
2023-11-02T10:14:08.518Z,9.19
2023-11-02T10:16:35.425Z,8.54
2023-11-02T10:19:02.332Z,8.76
2023-11-02T10:21:29.087Z,8.48
2023-11-02T10:23:56.967Z,8.63
2023-11-02T10:26:30.060Z,8.34
2023-11-02T10:29:00.160Z,8.39
2023-11-02T10:31:31.628Z,8.52
2023-11-02T10:34:01.620Z,8.66
2023-11-02T10:36:31.042Z,8.71
2023-11-02T10:38:58.856Z,8.38
2023-11-02T10:41:26.522Z,8.32
2023-11-02T10:43:57.013Z,8.01
2023-11-02T10:46:28.739Z,8.03
2023-11-02T10:48:59.833Z,8.06
2023-11-02T10:51:30.958Z,8.16
2023-11-02T10:54:38.330Z,7.90
2023-11-02T10:57:17.289Z,7.83
2023-11-02T10:59:47.535Z,7.84
2023-11-02T11:02:18.814Z,7.82
2023-11-02T11:04:48.191Z,7.95
2023-11-02T11:07:15.257Z,7.88
2023-11-02T11:09:42.664Z,7.92
2023-11-02T11:12:10.811Z,7.69
2023-11-02T11:14:39.054Z,7.73
2023-11-02T11:17:05.771Z,7.85
2023-11-02T11:19:34.863Z,8.09
2023-11-02T11:22:12.573Z,8.09
2023-11-02T11:24:39.758Z,7.93
2023-11-02T11:27:07.380Z,7.96
2023-11-02T11:29:41.402Z,8.13
2023-11-02T11:32:09.976Z,8.00
2023-11-02T11:34:55.049Z,8.23
2023-11-02T11:37:50.803Z,8.17
2023-11-02T11:40:20.424Z,8.34
2023-11-02T11:42:52.950Z,8.47
2023-11-02T11:45:36.580Z,8.27
2023-11-02T11:48:05.885Z,8.18
2023-11-02T11:50:34.654Z,8.19
2023-11-02T11:53:24.451Z,7.96
2023-11-02T11:55:53.083Z,8.14
2023-11-02T11:58:48.877Z,8.12
2023-11-02T12:01:18.566Z,8.15
2023-11-02T12:03:47.991Z,8.19
2023-11-02T12:06:16.755Z,8.27
2023-11-02T12:08:48.225Z,8.14
2023-11-02T12:11:16.332Z,8.02
2023-11-02T12:13:56.385Z,7.94
2023-11-02T12:16:30.441Z,7.83
2023-11-02T12:18:57.431Z,7.93
2023-11-02T12:21:25.848Z,7.80
2023-11-02T12:23:53.258Z,7.89
2023-11-02T12:26:21.176Z,8.13
2023-11-02T12:28:52.812Z,7.96
2023-11-02T12:31:33.419Z,7.77
2023-11-02T12:34:03.177Z,7.93
2023-11-02T12:36:30.737Z,8.00
2023-11-02T12:38:57.726Z,7.76
2023-11-02T12:41:31.979Z,7.94
2023-11-02T12:44:05.026Z,8.04
2023-11-02T12:46:38.391Z,7.99
2023-11-02T12:49:23.016Z,7.91
2023-11-02T12:52:01.654Z,7.79
2023-11-02T12:54:31.112Z,7.78
2023-11-02T12:57:03.725Z,7.81
2023-11-02T12:59:40.205Z,7.82
2023-11-02T13:02:07.871Z,7.46
2023-11-02T13:04:55.493Z,7.56
2023-11-02T13:07:34.778Z,7.57
2023-11-02T13:10:08.775Z,7.43
2023-11-02T13:12:40.449Z,7.54
2023-11-02T13:15:12.799Z,7.53
2023-11-02T13:17:44.667Z,7.57
2023-11-02T13:20:16.572Z,7.63
2023-11-02T13:22:49.538Z,7.49
2023-11-02T13:25:17.376Z,7.39
2023-11-02T13:27:45.739Z,7.30
2023-11-02T13:30:13.484Z,7.27
2023-11-02T13:32:40.928Z,7.38
2023-11-02T13:35:08.291Z,7.56
2023-11-02T13:37:35.255Z,7.50
2023-11-02T13:40:05.335Z,7.57
2023-11-02T13:42:32.003Z,7.65
2023-11-02T13:44:58.667Z,7.47
2023-11-02T13:47:25.386Z,7.38
2023-11-02T13:49:52.116Z,7.46
2023-11-02T13:52:18.917Z,7.51
2023-11-02T13:54:45.622Z,7.48
2023-11-02T13:57:12.388Z,7.44
2023-11-02T13:59:40.268Z,7.28
2023-11-02T14:02:08.073Z,7.27
2023-11-02T14:04:35.599Z,7.33
2023-11-02T14:07:02.644Z,7.24
2023-11-02T14:09:29.488Z,7.20
2023-11-02T14:11:56.212Z,7.10
2023-11-02T14:14:23.777Z,6.99
2023-11-02T14:16:50.732Z,7.05
2023-11-02T14:19:17.374Z,6.96
2023-11-02T14:21:44.151Z,6.97
2023-11-02T14:24:10.917Z,6.97
2023-11-02T14:26:37.610Z,6.96
2023-11-02T14:29:05.433Z,7.06
2023-11-02T14:31:32.198Z,7.03
2023-11-02T14:34:00.425Z,7.11
2023-11-02T14:36:27.123Z,6.96
2023-11-02T14:38:54.384Z,6.87
2023-11-02T14:41:22.146Z,7.03
2023-11-02T14:43:48.823Z,7.16
2023-11-02T14:46:15.976Z,7.25
2023-11-02T14:48:42.956Z,7.25
2023-11-02T14:51:09.724Z,7.22
2023-11-02T14:53:36.403Z,7.28
2023-11-02T14:56:03.862Z,7.35
2023-11-02T14:58:30.558Z,7.07
2023-11-02T15:00:57.541Z,7.11
2023-11-02T15:03:24.402Z,7.27
2023-11-02T15:05:51.348Z,7.36
2023-11-02T15:08:20.652Z,7.34
2023-11-02T15:10:47.399Z,7.19
2023-11-02T15:13:14.294Z,7.18
2023-11-02T15:15:41.053Z,7.13
2023-11-02T15:18:07.824Z,7.02
2023-11-02T15:20:37.761Z,7.03
2023-11-02T15:23:04.549Z,7.15
2023-11-02T15:25:31.350Z,7.10
2023-11-02T15:27:58.226Z,6.97
2023-11-02T15:30:25.198Z,7.00
2023-11-02T15:32:51.986Z,6.88
2023-11-02T15:35:18.914Z,7.13
2023-11-02T15:37:45.716Z,7.25
2023-11-02T15:40:12.930Z,7.02
2023-11-02T15:42:39.906Z,7.02
2023-11-02T15:45:09.485Z,7.01
2023-11-02T15:47:36.660Z,7.01
2023-11-02T15:50:08.276Z,7.12
2023-11-02T15:52:42.621Z,7.06
2023-11-02T15:55:10.396Z,6.94
2023-11-02T15:57:37.969Z,7.07
2023-11-02T16:00:07.146Z,6.94
2023-11-02T16:02:33.933Z,7.00
2023-11-02T16:05:00.743Z,7.00
2023-11-02T16:07:27.435Z,6.98
2023-11-02T16:09:54.331Z,6.90
2023-11-02T16:12:21.051Z,6.82
2023-11-02T16:14:48.168Z,6.96
2023-11-02T16:17:14.944Z,7.02
2023-11-02T16:19:41.778Z,7.04
2023-11-02T16:22:08.537Z,7.07
2023-11-02T16:24:35.350Z,6.87
2023-11-02T16:27:02.154Z,6.91
2023-11-02T16:29:28.822Z,6.98
2023-11-02T16:31:57.525Z,7.26
2023-11-02T16:34:34.620Z,7.32
2023-11-02T16:37:06.424Z,7.51
2023-11-02T16:39:34.489Z,7.32
2023-11-02T16:42:02.797Z,7.04
2023-11-02T16:44:30.858Z,7.12
2023-11-02T16:47:00.218Z,7.24
2023-11-02T16:49:28.317Z,7.14
2023-11-02T16:51:55.186Z,7.36
2023-11-02T16:54:24.814Z,7.50
2023-11-02T16:56:51.908Z,7.13
2023-11-02T16:59:19.375Z,6.85
2023-11-02T17:01:47.531Z,6.91
2023-11-02T17:04:14.537Z,6.59
2023-11-02T17:06:41.339Z,6.59
2023-11-02T17:09:10.125Z,6.43
2023-11-02T17:11:38.074Z,6.62
2023-11-02T17:14:05.187Z,6.90
2023-11-02T17:16:32.093Z,7.11
2023-11-02T17:18:59.786Z,7.04
2023-11-02T17:21:29.543Z,6.89
2023-11-02T17:23:57.262Z,6.94
2023-11-02T17:26:27.445Z,7.01
2023-11-02T17:28:54.304Z,6.86
2023-11-02T17:31:21.112Z,6.69
2023-11-02T17:33:48.106Z,6.99
2023-11-02T17:36:15.090Z,6.81
2023-11-02T17:38:41.817Z,6.63
2023-11-02T17:41:08.666Z,6.73
2023-11-02T17:43:37.870Z,6.87
2023-11-02T17:46:05.692Z,7.11
2023-11-02T17:48:32.814Z,7.12
2023-11-02T17:51:02.096Z,7.38
2023-11-02T17:53:29.149Z,7.19
2023-11-02T17:55:55.832Z,7.28
2023-11-02T17:58:24.557Z,7.05
2023-11-02T18:00:52.656Z,7.03
2023-11-02T18:03:19.416Z,7.13
2023-11-02T18:05:46.100Z,7.02
2023-11-02T18:08:12.748Z,7.20
2023-11-02T18:10:39.482Z,7.21
2023-11-02T18:13:06.215Z,7.33
2023-11-02T18:15:33.292Z,7.18
2023-11-02T18:18:00.900Z,7.11
2023-11-02T18:20:27.691Z,7.42
2023-11-02T18:22:54.898Z,7.58
2023-11-02T18:25:22.179Z,7.72
2023-11-02T18:27:49.176Z,7.52
2023-11-02T18:30:16.083Z,7.52
2023-11-02T18:32:43.821Z,7.58
2023-11-02T18:35:10.971Z,7.47
2023-11-02T18:37:38.526Z,7.57
2023-11-02T18:40:06.257Z,7.65
2023-11-02T18:42:33.133Z,7.85
2023-11-02T18:44:59.930Z,7.72
2023-11-02T18:47:26.597Z,7.56
2023-11-02T18:49:56.185Z,7.34
2023-11-02T18:52:22.890Z,7.02
2023-11-02T18:54:57.362Z,6.71
2023-11-02T18:57:24.721Z,6.57
2023-11-02T18:59:51.860Z,6.58
2023-11-02T19:02:20.225Z,6.99
2023-11-02T19:04:48.193Z,7.16
2023-11-02T19:07:18.043Z,7.13
2023-11-02T19:09:45.904Z,7.32
2023-11-02T19:12:18.559Z,7.03
2023-11-02T19:14:45.279Z,7.42
2023-11-02T19:17:11.992Z,7.44
2023-11-02T19:19:39.241Z,7.38
2023-11-02T19:22:06.941Z,7.59
2023-11-02T19:24:34.393Z,7.50
2023-11-02T19:27:01.600Z,7.68
2023-11-02T19:29:28.736Z,7.85
2023-11-02T19:31:56.449Z,7.79
2023-11-02T19:34:25.380Z,7.62
2023-11-02T19:36:52.552Z,7.60
2023-11-02T19:39:20.401Z,7.76
2023-11-02T19:41:47.311Z,7.86
2023-11-02T19:44:14.175Z,7.76
2023-11-02T19:46:44.651Z,7.60
2023-11-02T19:49:15.612Z,7.55
2023-11-02T19:51:43.294Z,7.66
2023-11-02T19:54:11.369Z,7.68
2023-11-02T19:56:42.994Z,7.24
2023-11-02T19:59:11.852Z,6.34
2023-11-02T20:01:40.051Z,6.43
2023-11-02T20:04:08.317Z,6.60
2023-11-02T20:06:36.844Z,6.59
2023-11-02T20:09:05.668Z,6.50
2023-11-02T20:11:33.356Z,6.37
2023-11-02T20:14:00.366Z,6.14
2023-11-02T20:16:27.243Z,5.82
2023-11-02T20:18:54.207Z,5.82
2023-11-02T20:21:25.387Z,5.93
2023-11-02T20:23:53.084Z,6.03
2023-11-02T20:26:20.446Z,5.95
2023-11-02T20:28:48.497Z,5.84
2023-11-02T20:31:15.272Z,5.92
2023-11-02T20:33:43.680Z,5.76
2023-11-02T20:36:10.749Z,5.70
2023-11-02T20:38:37.502Z,5.82
2023-11-02T20:41:05.737Z,5.66
2023-11-02T20:43:32.977Z,5.80
2023-11-02T20:46:02.202Z,5.75
2023-11-02T20:48:31.688Z,5.54
2023-11-02T20:50:58.639Z,5.38
2023-11-02T20:53:25.386Z,4.94
2023-11-02T20:55:52.173Z,4.79
2023-11-02T20:58:18.990Z,5.03
2023-11-02T21:00:52.670Z,4.96
2023-11-02T21:03:23.558Z,5.11
2023-11-02T21:05:52.695Z,4.50
2023-11-02T21:08:19.696Z,4.26
2023-11-02T21:10:49.119Z,4.25
2023-11-02T21:13:18.187Z,4.57
2023-11-02T21:15:45.515Z,4.57
2023-11-02T21:18:12.414Z,4.78
2023-11-02T21:20:39.351Z,4.97
2023-11-02T21:23:06.180Z,5.12
2023-11-02T21:25:33.958Z,5.24
2023-11-02T21:28:01.005Z,5.22
2023-11-02T21:30:28.192Z,5.67
2023-11-02T21:32:57.493Z,5.48
2023-11-02T21:35:24.385Z,5.28
2023-11-02T21:37:53.355Z,4.97
2023-11-02T21:40:20.253Z,4.33
2023-11-02T21:42:47.926Z,4.41
2023-11-02T21:45:15.393Z,4.65
2023-11-02T21:47:42.400Z,4.75
2023-11-02T21:50:11.787Z,4.66
2023-11-02T21:52:39.520Z,4.64
2023-11-02T21:55:06.994Z,4.84
2023-11-02T21:57:33.828Z,5.03
2023-11-02T22:00:00.671Z,5.25
2023-11-02T22:02:27.487Z,5.40
2023-11-02T22:04:54.486Z,5.10
2023-11-02T22:07:21.372Z,4.71
2023-11-02T22:09:48.290Z,4.58
2023-11-02T22:12:15.909Z,4.98
2023-11-02T22:14:42.915Z,5.02
2023-11-02T22:17:09.628Z,5.05
2023-11-02T22:19:36.444Z,5.03
2023-11-02T22:22:03.250Z,5.08
2023-11-02T22:24:30.035Z,4.97
2023-11-02T22:26:56.861Z,4.66
2023-11-02T22:29:23.574Z,4.63
2023-11-02T22:31:50.348Z,4.44
2023-11-02T22:34:17.203Z,4.17
2023-11-02T22:36:44.113Z,4.33
2023-11-02T22:39:10.962Z,4.30
2023-11-02T22:41:42.949Z,4.44
2023-11-02T22:44:10.786Z,4.49
2023-11-02T22:46:37.701Z,3.64
2023-11-02T22:49:04.689Z,4.08
2023-11-02T22:51:31.829Z,4.28
2023-11-02T22:53:58.910Z,4.25
2023-11-02T22:56:25.664Z,4.22
2023-11-02T22:58:52.453Z,4.20
2023-11-02T23:01:20.577Z,3.94
2023-11-02T23:03:50.082Z,3.65
2023-11-02T23:06:18.141Z,3.71
2023-11-02T23:08:46.005Z,3.67
2023-11-02T23:11:13.608Z,3.63
2023-11-02T23:13:41.155Z,3.38
2023-11-02T23:16:09.741Z,3.71
2023-11-02T23:18:37.298Z,3.65
2023-11-02T23:21:07.212Z,3.68
2023-11-02T23:23:33.964Z,3.72
2023-11-02T23:26:08.517Z,3.78
2023-11-02T23:28:36.241Z,3.84
2023-11-02T23:31:04.462Z,3.58
2023-11-02T23:33:31.699Z,3.36
2023-11-02T23:35:58.518Z,3.59
2023-11-02T23:38:25.885Z,3.72
2023-11-02T23:40:52.613Z,3.66
2023-11-02T23:43:19.310Z,3.69
2023-11-02T23:45:46.062Z,3.40
2023-11-02T23:48:13.625Z,2.25
2023-11-02T23:50:40.379Z,2.50
2023-11-02T23:53:10.812Z,3.19
2023-11-02T23:55:40.920Z,3.52
2023-11-02T23:58:07.953Z,3.48
